Time;durP1;ratioP1;P1;durP2;ratioP2;P2;SDS_P1;SDS_P2;PMS_P1;PMS_P2;Temp;Humidity;BMP_temperature;BMP_pressure;BME280_temperature;BME280_humidity;BME280_pressure;Samples;Min_cycle;Max_cycle;Signal;HPM_P1;HPM_P2
2021/01/03 00:01:26;;;;;;;125.87;45.10;;;;;;;2.40;97.76;101620.78;5093057;28;20039;-77
2021/01/03 00:03:51;;;;;;;142.37;50.33;;;;;;;2.41;98.20;101626.75;5093444;28;20350;-77
2021/01/03 00:06:17;;;;;;;124.87;43.90;;;;;;;2.46;98.13;101623.72;5093295;28;20748;-77
2021/01/03 00:08:43;;;;;;;119.57;42.87;;;;;;;2.48;98.05;101623.84;5091330;28;20024;-77
2021/01/03 00:11:09;;;;;;;108.60;41.43;;;;;;;2.54;97.97;101619.19;5093880;28;20027;-77
2021/01/03 00:13:34;;;;;;;93.10;37.67;;;;;;;2.58;97.99;101612.66;5094545;28;20032;-77
2021/01/03 00:15:59;;;;;;;120.25;44.55;;;;;;;2.58;98.04;101626.22;5092608;28;20024;-78
2021/01/03 00:18:25;;;;;;;117.53;43.50;;;;;;;2.58;98.28;101622.78;5094356;28;20304;-78
2021/01/03 00:20:50;;;;;;;131.35;47.10;;;;;;;2.56;98.07;101624.34;5092941;28;20024;-78
2021/01/03 00:23:18;;;;;;;148.07;50.67;;;;;;;2.58;98.24;101620.25;5094208;28;20027;-77
2021/01/03 00:25:43;;;;;;;134.87;48.13;;;;;;;2.64;98.25;101621.59;5091851;28;20063;-76
2021/01/03 00:28:08;;;;;;;117.38;45.10;;;;;;;2.71;98.18;101622.88;5093972;28;20454;-77
2021/01/03 00:30:34;;;;;;;134.40;46.17;;;;;;;2.71;98.13;101616.13;5092629;28;20024;-77
2021/01/03 00:33:00;;;;;;;176.03;54.77;;;;;;;2.72;97.97;101614.47;5092879;28;20277;-77
2021/01/03 00:35:35;;;;;;;175.40;55.77;;;;;;;2.75;97.88;101615.56;5093082;28;20258;-77
2021/01/03 00:38:04;;;;;;;156.53;52.67;;;;;;;2.80;97.92;101618.41;5091389;28;20416;-77
2021/01/03 00:40:30;;;;;;;152.77;51.60;;;;;;;2.81;97.79;101612.56;5094107;28;20028;-78
2021/01/03 00:42:56;;;;;;;156.30;53.50;;;;;;;2.83;98.06;101613.53;5092608;28;20024;-77
2021/01/03 00:45:21;;;;;;;151.38;48.58;;;;;;;2.82;97.76;101614.31;5092799;28;20435;-77
2021/01/03 00:47:47;;;;;;;142.20;48.30;;;;;;;2.84;97.86;101615.28;5092290;28;20280;-77
2021/01/03 00:50:13;;;;;;;134.50;45.33;;;;;;;2.82;97.76;101611.78;5092581;28;20020;-78
2021/01/03 00:52:38;;;;;;;125.07;43.30;;;;;;;2.86;97.80;101606.13;5093745;28;20265;-78
2021/01/03 00:55:06;;;;;;;113.10;42.10;;;;;;;2.83;97.69;101613.53;5093771;28;20062;-77
2021/01/03 00:57:31;;;;;;;124.57;42.17;;;;;;;2.80;97.62;101605.72;5091198;28;20066;-77
2021/01/03 00:59:57;;;;;;;107.87;38.43;;;;;;;2.81;97.46;101605.81;5092308;28;20056;-78
2021/01/03 01:02:22;;;;;;;101.28;37.08;;;;;;;2.87;97.44;101609.53;5092381;28;20036;-77
2021/01/03 01:04:47;;;;;;;90.80;34.57;;;;;;;2.89;97.14;101608.84;5092570;28;20026;-77
2021/01/03 01:07:13;;;;;;;94.93;34.77;;;;;;;2.88;97.01;101604.56;5092171;28;20280;-77
2021/01/03 01:09:38;;;;;;;92.82;34.03;;;;;;;2.92;97.10;101609.06;5092169;28;20032;-78
2021/01/03 01:12:03;;;;;;;84.50;32.90;;;;;;;2.94;96.53;101602.47;5093063;28;20036;-79
2021/01/03 01:14:29;;;;;;;85.60;31.05;;;;;;;2.88;96.40;101601.16;5091997;28;20277;-77
2021/01/03 01:16:54;;;;;;;83.18;31.70;;;;;;;2.87;96.40;101612.06;5092027;28;20031;-77
2021/01/03 01:19:21;;;;;;;84.93;31.50;;;;;;;2.87;95.83;101604.47;5093254;28;20020;-78
2021/01/03 01:21:46;;;;;;;79.87;29.23;;;;;;;2.91;95.84;101603.88;5093040;28;20284;-77
2021/01/03 01:24:12;;;;;;;81.70;32.23;;;;;;;2.87;95.82;101607.88;5092062;28;20478;-76
2021/01/03 01:26:37;;;;;;;88.78;32.15;;;;;;;2.88;96.07;101617.25;5091607;28;20023;-77
2021/01/03 01:29:03;;;;;;;75.57;29.53;;;;;;;2.86;95.56;101606.13;5091672;28;20039;-78
2021/01/03 01:31:28;;;;;;;83.57;31.48;;;;;;;2.81;95.75;101615.97;5091443;28;20475;-76
2021/01/03 01:33:53;;;;;;;84.47;33.83;;;;;;;2.78;95.76;101615.78;5091872;28;20034;-77
2021/01/03 01:36:18;;;;;;;86.43;32.50;;;;;;;2.80;95.88;101613.34;5091851;28;20606;-76
2021/01/03 01:38:44;;;;;;;84.50;32.23;;;;;;;2.80;95.70;101616.75;5091652;28;20268;-77
2021/01/03 01:41:09;;;;;;;86.57;31.53;;;;;;;2.86;95.80;101613.72;5089905;28;20474;-77
2021/01/03 01:43:34;;;;;;;92.30;32.67;;;;;;;2.80;95.65;101614.22;5091468;28;20316;-77
2021/01/03 01:46:00;;;;;;;92.65;31.75;;;;;;;2.79;96.03;101614.09;5092500;28;20408;-76
2021/01/03 01:48:30;;;;;;;89.57;33.03;;;;;;;2.75;95.97;101610.50;5092767;28;20074;-77
2021/01/03 01:50:59;;;;;;;85.83;33.10;;;;;;;2.73;96.21;101614.59;5092669;28;20036;-78
2021/01/03 01:53:33;;;;;;;83.33;30.50;;;;;;;2.73;96.26;101621.31;5091280;28;20023;-78
2021/01/03 01:56:11;;;;;;;88.77;31.87;;;;;;;2.74;96.34;101615.47;5092204;28;20111;-77
2021/01/03 01:59:13;;;;;;;88.20;34.03;;;;;;;2.74;96.43;101613.81;5090069;28;20039;-78
2021/01/03 02:01:50;;;;;;;82.47;30.23;;;;;;;2.75;96.41;101614.69;5087803;28;20097;-76
2021/01/03 02:04:48;;;;;;;83.40;31.03;;;;;;;2.78;96.24;101619.97;5091213;28;20024;-77
2021/01/03 02:07:35;;;;;;;79.03;30.07;;;;;;;2.79;96.06;101624.25;5086736;28;20482;-78
2021/01/03 02:10:14;;;;;;;76.15;29.13;;;;;;;2.80;96.01;101614.22;5090457;28;20030;-79
2021/01/03 02:12:44;;;;;;;75.77;28.43;;;;;;;2.83;95.58;101615.19;5088615;28;20047;-78
2021/01/03 02:15:13;;;;;;;69.17;28.40;;;;;;;2.84;95.73;101619.50;5088313;28;20028;-77
2021/01/03 02:17:42;;;;;;;63.77;27.83;;;;;;;2.88;95.61;101627.41;5091952;28;20201;-77
2021/01/03 02:20:08;;;;;;;72.20;26.70;;;;;;;2.85;95.40;101622.13;5090892;28;20020;-77
2021/01/03 02:22:38;;;;;;;;;;;;;;;2.87;95.41;101620.56;5092427;28;20020;-77
2021/01/03 02:25:06;;;;;;;67.07;27.63;;;;;;;2.86;95.22;101623.88;5089957;28;19911;-77
2021/01/03 02:27:59;;;;;;;66.97;26.63;;;;;;;2.85;95.56;101623.78;5090218;28;20036;-78
2021/01/03 02:30:27;;;;;;;62.10;25.93;;;;;;;2.81;95.52;101625.25;5090638;28;20400;-78
2021/01/03 02:33:08;;;;;;;64.23;27.43;;;;;;;2.79;95.67;101621.72;5089741;28;20565;-78
2021/01/03 02:35:36;;;;;;;60.37;24.23;;;;;;;2.80;95.39;101623.47;5090701;28;20031;-77
2021/01/03 02:38:04;;;;;;;61.20;25.63;;;;;;;2.81;95.54;101620.16;5090073;28;20028;-77
2021/01/03 02:40:29;;;;;;;64.43;28.00;;;;;;;2.80;95.30;101615.88;5090174;28;20012;-77
2021/01/03 02:42:55;;;;;;;74.77;27.83;;;;;;;2.93;94.17;101615.06;5091718;28;20112;-77
2021/01/03 02:45:26;;;;;;;54.80;24.50;;;;;;;2.90;94.51;101623.31;5090685;28;20289;-76
2021/01/03 02:47:52;;;;;;;64.77;26.87;;;;;;;2.94;93.97;101622.75;5088559;28;20105;-76
2021/01/03 02:50:21;;;;;;;64.32;26.10;;;;;;;2.87;94.47;101615.50;5090210;28;20493;-80
2021/01/03 02:52:47;;;;;;;60.60;26.80;;;;;;;2.90;94.53;101620.78;5088440;28;20108;-77
2021/01/03 02:55:14;;;;;;;60.72;26.25;;;;;;;2.90;94.73;101620.78;5090157;28;20130;-78
2021/01/03 02:57:40;;;;;;;72.83;27.93;;;;;;;2.86;94.68;101616.28;5089855;28;20035;-76
2021/01/03 03:00:07;;;;;;;70.75;27.23;;;;;;;2.83;94.93;101621.16;5090126;28;20020;-77
2021/01/03 03:02:33;;;;;;;69.90;26.47;;;;;;;2.84;94.82;101620.38;5089743;28;20028;-79
2021/01/03 03:04:58;;;;;;;67.17;27.47;;;;;;;2.84;94.98;101625.44;5090354;28;20030;-77
2021/01/03 03:07:23;;;;;;;70.75;27.77;;;;;;;2.84;94.57;101619.50;5090059;28;20277;-76
2021/01/03 03:09:48;;;;;;;71.53;26.87;;;;;;;2.83;94.88;101616.06;5089936;28;20020;-77
2021/01/03 03:12:14;;;;;;;70.87;27.37;;;;;;;2.80;95.06;101615.88;5090871;28;20024;-78
2021/01/03 03:14:39;;;;;;;74.80;27.88;;;;;;;2.79;95.14;101621.72;5091203;28;20278;-77
2021/01/03 03:17:06;;;;;;;97.97;31.02;;;;;;;2.76;95.25;101619.88;5089940;28;20055;-77
2021/01/03 03:19:32;;;;;;;81.80;30.83;;;;;;;2.72;95.30;101624.63;5089408;28;20031;-78
2021/01/03 03:21:57;;;;;;;83.45;29.85;;;;;;;2.68;95.06;101620.13;5090967;28;20106;-77
2021/01/03 03:24:22;;;;;;;87.65;30.85;;;;;;;2.62;94.91;101622.25;5090177;28;20026;-77
2021/01/03 03:26:58;;;;;;;82.72;30.40;;;;;;;2.63;95.17;101624.03;5089373;28;20020;-76
2021/01/03 03:29:24;;;;;;;77.97;28.17;;;;;;;2.68;95.05;101622.66;5090602;28;20031;-77
2021/01/03 03:31:51;;;;;;;87.57;30.40;;;;;;;2.60;94.92;101618.72;5091691;28;20108;-80
2021/01/03 03:34:17;;;;;;;78.10;28.77;;;;;;;2.60;94.90;101623.78;5099174;28;20397;-79
2021/01/03 03:36:43;;;;;;;73.40;26.80;;;;;;;2.59;94.91;101622.03;5098916;28;20513;-79
2021/01/03 03:39:09;;;;;;;75.97;28.75;;;;;;;2.61;95.07;101628.13;5100668;28;20027;-78
2021/01/03 03:41:35;;;;;;;74.83;31.17;;;;;;;2.58;95.56;101630.41;5098943;28;20017;-77
2021/01/03 03:44:01;;;;;;;77.35;28.70;;;;;;;2.48;95.40;101626.38;5089418;28;20076;-77
2021/01/03 03:46:26;;;;;;;69.07;26.42;;;;;;;2.54;94.80;101621.72;5090544;28;20184;-80
2021/01/03 03:48:51;;;;;;;69.75;27.85;;;;;;;2.53;94.90;101626.69;5092587;28;20028;-78
2021/01/03 03:51:19;;;;;;;79.20;27.77;;;;;;;2.50;94.94;101623.16;5090745;28;20093;-79
2021/01/03 03:53:45;;;;;;;76.43;27.53;;;;;;;2.53;95.25;101619.06;5086906;28;20266;-78
2021/01/03 03:56:11;;;;;;;72.80;27.77;;;;;;;2.50;94.78;101622.28;5090185;28;20485;-78
2021/01/03 03:58:37;;;;;;;72.27;27.07;;;;;;;2.50;95.01;101623.16;5090244;28;20028;-78
2021/01/03 04:01:03;;;;;;;65.57;25.25;;;;;;;2.50;94.87;101628.25;5088861;28;20019;-77
2021/01/03 04:03:29;;;;;;;71.57;25.43;;;;;;;2.48;94.67;101623.84;5090834;28;20085;-77
2021/01/03 04:05:54;;;;;;;73.72;25.98;;;;;;;2.55;94.43;101617.53;5089558;28;20027;-77
2021/01/03 04:08:19;;;;;;;67.53;26.37;;;;;;;2.49;94.42;101618.88;5089476;28;20028;-77
2021/01/03 04:10:44;;;;;;;68.40;26.27;;;;;;;2.47;94.44;101611.94;5089156;28;20290;-76
2021/01/03 04:13:11;;;;;;;65.33;23.50;;;;;;;2.59;94.30;101614.41;5089338;28;20028;-78
2021/01/03 04:15:36;;;;;;;71.38;25.02;;;;;;;2.57;94.40;101621.03;5089055;28;20281;-76
2021/01/03 04:18:03;;;;;;;67.22;26.45;;;;;;;2.57;94.38;101618.50;5089239;28;20428;-78
2021/01/03 04:20:28;;;;;;;;;;;;;;;2.60;94.46;101621.25;5091263;28;20065;-77
2021/01/03 04:22:53;;;;;;;69.33;25.03;;;;;;;2.54;94.34;101615.75;5089245;28;19924;-77
2021/01/03 04:25:19;;;;;;;75.30;24.98;;;;;;;2.56;94.77;101610.00;5101996;23;20048;-80
2021/01/03 04:27:45;;;;;;;67.45;25.42;;;;;;;2.60;94.23;101618.72;5078030;28;20028;-82
2021/01/03 04:30:12;;;;;;;75.73;26.77;;;;;;;2.54;94.40;101620.84;5077635;28;20024;-79
2021/01/03 04:32:37;;;;;;;72.90;25.10;;;;;;;2.55;94.71;101608.25;5078853;28;20282;-80
2021/01/03 04:35:05;;;;;;;71.90;26.98;;;;;;;2.56;94.92;101616.75;5082328;28;20016;-78
2021/01/03 04:37:30;;;;;;;68.13;26.83;;;;;;;2.59;94.38;101619.47;5101990;28;20113;-79
2021/01/03 04:39:55;;;;;;;74.03;27.70;;;;;;;2.61;94.55;101628.13;5104458;28;20024;-80
2021/01/03 04:42:24;;;;;;;66.13;24.87;;;;;;;2.61;94.90;101625.56;5104411;28;20050;-80
2021/01/03 04:44:59;;;;;;;72.70;26.37;;;;;;;2.57;95.25;101628.66;5104341;28;20028;-81
2021/01/03 04:47:29;;;;;;;75.20;25.67;;;;;;;2.57;95.03;101628.66;5104108;28;20102;-80
2021/01/03 04:50:06;;;;;;;71.27;25.63;;;;;;;2.57;95.24;101634.59;5103368;28;20485;-78
2021/01/03 04:52:53;;;;;;;72.47;24.90;;;;;;;2.57;95.20;101628.66;5100232;28;20500;-77
2021/01/03 04:55:27;;;;;;;76.05;26.23;;;;;;;2.53;95.23;101636.81;5107078;28;20032;-81
2021/01/03 04:58:14;;;;;;;74.97;24.83;;;;;;;2.55;95.23;101630.19;5107227;28;20056;-81
2021/01/03 05:00:45;;;;;;;71.47;26.13;;;;;;;2.57;94.84;101633.72;5105414;28;20493;-81
2021/01/03 05:03:32;;;;;;;73.83;26.53;;;;;;;2.63;94.93;101636.69;5105990;28;20047;-80
2021/01/03 05:06:02;;;;;;;67.82;25.25;;;;;;;2.60;94.70;101631.38;5107134;28;20020;-80
2021/01/03 05:08:40;;;;;;;73.47;26.27;;;;;;;2.58;94.43;101631.28;5103628;28;20466;-78
2021/01/03 05:11:11;;;;;;;68.03;25.67;;;;;;;2.54;94.27;101633.50;5101253;28;20049;-77
2021/01/03 05:13:48;;;;;;;70.33;26.07;;;;;;;2.56;94.54;101632.84;5101664;28;20024;-81
2021/01/03 05:16:17;;;;;;;72.23;25.50;;;;;;;2.58;94.57;101635.47;5103805;28;20079;-80
2021/01/03 05:18:42;;;;;;;66.53;24.97;;;;;;;2.68;94.45;101630.28;5102080;28;20024;-81
2021/01/03 05:21:07;;;;;;;63.47;24.70;;;;;;;2.65;94.55;101632.59;5104126;28;20059;-82
2021/01/03 05:23:38;;;;;;;64.18;23.55;;;;;;;2.66;94.80;101635.25;5102336;28;20035;-79
2021/01/03 05:26:08;;;;;;;62.33;22.50;;;;;;;2.66;94.75;101629.28;5098575;28;20030;-81
2021/01/03 05:28:36;;;;;;;68.07;25.47;;;;;;;2.64;94.85;101641.00;5100975;28;20024;-79
2021/01/03 05:31:09;;;;;;;67.77;24.73;;;;;;;2.64;94.99;101638.47;5096353;28;20085;-78
2021/01/03 05:33:35;;;;;;;67.20;25.80;;;;;;;2.63;95.05;101637.59;5096267;28;20104;-79
2021/01/03 05:36:00;;;;;;;67.68;24.30;;;;;;;2.66;95.04;101636.91;5096393;28;20058;-78
2021/01/03 05:38:40;;;;;;;68.32;26.02;;;;;;;2.65;94.95;101636.03;5100020;28;20106;-79
2021/01/03 05:41:34;;;;;;;72.20;27.27;;;;;;;2.66;94.88;101636.91;5102472;28;20526;-78
2021/01/03 05:44:13;;;;;;;75.90;26.00;;;;;;;2.65;95.28;101642.75;5085139;28;20050;-81
2021/01/03 05:46:48;;;;;;;63.50;25.57;;;;;;;2.69;95.13;101642.19;5102866;28;20460;-80
2021/01/03 05:49:26;;;;;;;76.60;26.20;;;;;;;2.69;94.93;101642.19;5108715;28;20092;-81
2021/01/03 05:52:03;;;;;;;74.30;25.97;;;;;;;2.67;94.94;101646.28;5109515;28;20024;-81
2021/01/03 05:54:35;;;;;;;71.70;26.03;;;;;;;2.71;94.62;101650.78;5111904;28;20035;-81
2021/01/03 05:57:26;;;;;;;72.63;26.43;;;;;;;2.67;94.92;101648.81;5111992;28;20032;-81
2021/01/03 05:59:51;;;;;;;71.73;26.37;;;;;;;2.68;95.16;101656.53;5109368;28;20024;-81
2021/01/03 06:02:26;;;;;;;68.35;25.63;;;;;;;2.69;95.25;101662.47;5111328;28;20016;-82
2021/01/03 06:05:24;;;;;;;68.77;24.80;;;;;;;2.71;95.43;101658.38;5111102;28;20031;-81
2021/01/03 06:08:01;;;;;;;69.63;26.00;;;;;;;2.69;95.04;101665.91;5099642;28;20043;-81
2021/01/03 06:10:30;;;;;;;69.47;25.57;;;;;;;2.72;94.80;101666.09;5111573;28;20028;-80
2021/01/03 06:13:00;;;;;;;69.80;25.43;;;;;;;2.73;94.86;101667.88;5109479;28;20051;-81
2021/01/03 06:15:33;;;;;;;65.33;24.57;;;;;;;2.72;94.87;101666.09;5108802;28;20087;-80
2021/01/03 06:17:59;;;;;;;75.70;26.97;;;;;;;2.75;95.10;101675.56;5109233;28;20047;-81
2021/01/03 06:20:28;;;;;;;71.93;26.47;;;;;;;2.78;94.98;101676.66;5108568;28;20028;-81
2021/01/03 06:23:26;;;;;;;77.20;27.33;;;;;;;2.71;95.04;101679.56;5110266;28;20039;-80
2021/01/03 06:26:20;;;;;;;67.97;26.27;;;;;;;2.70;95.29;101676.91;5097807;28;20623;-78
2021/01/03 06:28:51;;;;;;;75.00;27.63;;;;;;;2.69;95.41;101677.69;5099432;28;21727;-81
2021/01/03 06:31:46;;;;;;;86.57;32.03;;;;;;;2.70;95.11;101677.81;5101291;28;20030;-80
2021/01/03 06:34:39;;;;;;;75.20;25.93;;;;;;;2.74;95.30;101683.97;5100885;28;20020;-80
2021/01/03 06:37:05;;;;;;;82.67;27.73;;;;;;;2.70;94.77;101687.94;5100906;28;20035;-79
2021/01/03 06:39:47;;;;;;;79.00;26.90;;;;;;;2.68;95.14;101688.63;5101818;28;20481;-81
2021/01/03 06:42:27;;;;;;;82.43;26.93;;;;;;;2.73;95.14;101692.34;5103170;28;20027;-81
2021/01/03 06:45:02;;;;;;;74.97;26.47;;;;;;;2.74;94.67;101692.44;5102957;28;20134;-80
2021/01/03 06:47:27;;;;;;;86.77;29.30;;;;;;;2.74;94.64;101699.19;5101550;28;20035;-81
2021/01/03 06:50:10;;;;;;;82.10;27.23;;;;;;;2.70;94.74;101692.16;5100232;28;20470;-81
2021/01/03 06:53:00;;;;;;;94.33;28.97;;;;;;;2.66;95.08;101698.66;5101041;28;20273;-80
2021/01/03 06:55:50;;;;;;;91.70;30.47;;;;;;;2.63;95.07;101702.66;5100635;28;20500;-81
2021/01/03 06:58:25;;;;;;;93.67;27.80;;;;;;;2.61;95.55;101702.53;5101182;28;20027;-81
2021/01/03 07:00:57;;;;;;;86.23;27.77;;;;;;;2.62;95.27;101700.88;5100825;28;20390;-80
2021/01/03 07:03:26;;;;;;;73.87;27.97;;;;;;;2.58;95.21;101709.03;5101300;28;20020;-82
2021/01/03 07:06:09;;;;;;;77.80;28.07;;;;;;;2.64;94.95;101702.75;5102061;28;20271;-80
2021/01/03 07:08:48;;;;;;;80.03;26.67;;;;;;;2.61;94.89;101711.81;5102212;28;20020;-80
2021/01/03 07:11:38;;;;;;;80.43;26.20;;;;;;;2.57;95.02;101712.34;5100926;28;20016;-81
2021/01/03 07:14:09;;;;;;;79.23;26.63;;;;;;;2.50;95.15;101709.38;5089579;28;20050;-80
2021/01/03 07:17:04;;;;;;;71.43;26.67;;;;;;;2.45;95.00;101710.72;5092296;28;20027;-81
2021/01/03 07:19:29;;;;;;;69.27;24.43;;;;;;;2.47;95.36;101709.19;5099072;28;20590;-79
2021/01/03 07:21:57;;;;;;;72.33;25.37;;;;;;;2.44;94.98;101716.56;5101815;28;20020;-82
2021/01/03 07:24:23;;;;;;;69.43;24.80;;;;;;;2.46;95.00;101715.03;5102987;28;20440;-81
2021/01/03 07:27:25;;;;;;;70.27;24.87;;;;;;;2.40;95.09;101714.59;5100574;28;20020;-81
2021/01/03 07:29:56;;;;;;;69.80;25.20;;;;;;;2.41;95.41;101723.09;5101097;28;20073;-79
2021/01/03 07:32:44;;;;;;;77.70;26.20;;;;;;;2.38;95.39;101722.88;5101340;28;20027;-79
2021/01/03 07:35:32;;;;;;;79.97;25.57;;;;;;;2.37;95.48;101727.06;5102157;28;20043;-81
2021/01/03 07:38:14;;;;;;;70.80;25.77;;;;;;;2.35;95.25;101728.63;5100885;28;20489;-81
2021/01/03 07:41:25;;;;;;;76.50;26.63;;;;;;;2.33;95.62;101727.63;5101905;28;20030;-79
2021/01/03 07:44:01;;;;;;;74.03;25.23;;;;;;;2.37;95.55;101732.13;5074559;28;20040;-82
2021/01/03 07:46:42;;;;;;;72.03;27.23;;;;;;;2.32;95.26;101728.41;5084655;28;20382;-82
2021/01/03 07:49:44;;;;;;;74.00;25.10;;;;;;;2.32;95.60;101728.41;5103717;28;20028;-81
2021/01/03 07:52:19;;;;;;;76.30;25.13;;;;;;;2.30;95.54;101742.63;5103425;28;20024;-79
2021/01/03 07:54:48;;;;;;;69.07;25.67;;;;;;;2.31;95.50;101741.84;5101047;28;20024;-80
2021/01/03 07:57:14;;;;;;;67.47;24.93;;;;;;;2.34;95.44;101743.72;5092726;28;20036;-78
2021/01/03 07:59:39;;;;;;;65.93;23.60;;;;;;;2.32;95.13;101743.59;5094151;28;20024;-79
2021/01/03 08:02:05;;;;;;;60.23;23.13;;;;;;;2.38;94.87;101746.56;5096023;28;20076;-80
2021/01/03 08:04:33;;;;;;;59.50;22.27;;;;;;;2.35;95.19;101748.00;5093935;28;20396;-79
2021/01/03 08:07:18;;;;;;;63.57;24.33;;;;;;;2.33;95.21;101750.44;5094026;28;20049;-81
2021/01/03 08:09:43;;;;;;;61.83;23.50;;;;;;;2.30;95.29;101749.34;5095297;28;20106;-80
2021/01/03 08:12:32;;;;;;;67.38;24.25;;;;;;;2.27;95.25;101755.06;5103138;28;20568;-80
2021/01/03 08:15:04;;;;;;;66.37;25.07;;;;;;;2.26;95.74;101755.81;5102880;28;20040;-79
2021/01/03 08:17:36;;;;;;;68.67;24.47;;;;;;;2.26;95.57;101758.34;5104246;28;20059;-79
2021/01/03 08:20:09;;;;;;;71.90;24.67;;;;;;;2.26;95.67;101763.44;5104531;28;20028;-80
2021/01/03 08:22:34;;;;;;;79.87;28.57;;;;;;;2.31;95.84;101758.72;5103239;28;20028;-79
2021/01/03 08:25:01;;;;;;;85.30;29.15;;;;;;;2.30;95.83;101755.31;5105385;28;20123;-79
2021/01/03 08:27:42;;;;;;;82.67;29.60;;;;;;;2.40;95.67;101764.44;5103602;28;20317;-78
2021/01/03 08:30:16;;;;;;;81.30;27.10;;;;;;;2.35;95.51;101756.50;5101952;28;20455;-82
2021/01/03 08:32:42;;;;;;;89.07;28.90;;;;;;;2.35;95.49;101759.03;5104294;28;20028;-79
2021/01/03 08:35:12;;;;;;;94.40;30.35;;;;;;;2.33;95.76;101762.25;5102250;28;20138;-79
2021/01/03 08:37:42;;;;;;;92.83;30.87;;;;;;;2.30;95.66;101769.63;5105530;28;20031;-80
2021/01/03 08:40:13;;;;;;;94.57;32.63;;;;;;;2.34;95.56;101766.53;5105681;28;20053;-79
2021/01/03 08:42:42;;;;;;;88.70;30.87;;;;;;;2.32;95.62;101771.50;5104297;28;20087;-79
2021/01/03 08:45:14;;;;;;;83.10;29.33;;;;;;;2.36;95.43;101776.00;5098552;28;20041;-78
2021/01/03 08:47:41;;;;;;;85.40;29.13;;;;;;;2.43;95.58;101773.13;5101886;28;20493;-78
2021/01/03 08:50:09;;;;;;;95.93;31.47;;;;;;;2.41;95.43;101768.72;5104593;28;20020;-79
2021/01/03 08:52:35;;;;;;;76.47;29.03;;;;;;;2.45;95.63;101771.59;5104361;28;20036;-81
2021/01/03 08:55:09;;;;;;;86.55;30.75;;;;;;;2.42;95.40;101771.38;5105315;28;20024;-81
2021/01/03 08:57:34;;;;;;;74.33;27.27;;;;;;;2.40;95.47;101774.56;5101697;28;20417;-80
2021/01/03 08:59:59;;;;;;;79.70;27.73;;;;;;;2.37;95.27;101780.31;5102538;28;20032;-79
2021/01/03 09:02:28;;;;;;;84.00;28.97;;;;;;;2.36;95.53;101770.94;5105077;28;20032;-79
2021/01/03 09:04:59;;;;;;;87.13;30.37;;;;;;;2.37;95.65;101777.78;5105592;28;20303;-79
2021/01/03 09:07:27;;;;;;;84.17;29.47;;;;;;;2.39;95.63;101780.41;5103571;28;20119;-81
2021/01/03 09:09:53;;;;;;;80.43;29.30;;;;;;;2.41;95.37;101778.88;5105453;28;20039;-81
2021/01/03 09:12:38;;;;;;;;;;;;;;;2.41;95.38;101794.97;5105768;28;20052;-80
2021/01/03 09:15:18;;;;;;;82.20;28.13;;;;;;;2.43;95.04;101788.34;5102683;28;20296;-80
2021/01/03 09:17:44;;;;;;;85.23;30.43;;;;;;;2.46;95.10;101790.22;5100182;28;20020;-81
2021/01/03 09:20:27;;;;;;;81.47;28.05;;;;;;;2.49;94.86;101792.97;5102163;28;20020;-81
2021/01/03 09:22:55;;;;;;;79.47;29.07;;;;;;;2.47;94.52;101799.59;5100237;28;20068;-79
2021/01/03 09:25:33;;;;;;;81.27;30.23;;;;;;;2.48;94.28;101802.22;5100066;28;20249;-80
2021/01/03 09:28:20;;;;;;;80.77;29.50;;;;;;;2.57;93.40;101803.66;5101514;28;20179;-85
2021/01/03 09:30:46;;;;;;;75.55;29.83;;;;;;;2.56;93.30;101812.03;5096940;28;20024;-79
2021/01/03 09:33:20;;;;;;;82.72;31.00;;;;;;;2.55;93.94;101810.28;5101746;28;20042;-79
2021/01/03 09:35:54;;;;;;;82.27;30.73;;;;;;;2.54;93.46;101811.91;5100731;28;20040;-82
2021/01/03 09:38:38;;;;;;;79.40;29.43;;;;;;;2.54;93.75;101809.38;5102442;28;20034;-82
2021/01/03 09:41:25;;;;;;;76.03;28.93;;;;;;;2.53;93.40;101817.78;5101681;28;20083;-79
2021/01/03 09:44:10;;;;;;;84.82;31.48;;;;;;;2.52;93.37;101813.47;5100831;28;20032;-80
2021/01/03 09:47:20;;;;;;;93.00;32.33;;;;;;;2.54;93.42;101811.03;5100198;28;20039;-82
2021/01/03 09:49:49;;;;;;;88.13;32.40;;;;;;;2.60;93.59;101814.00;5095200;28;20051;-80
2021/01/03 09:52:17;;;;;;;89.70;31.23;;;;;;;2.58;93.68;101813.03;5100456;28;20031;-81
2021/01/03 09:55:06;;;;;;;90.80;33.40;;;;;;;2.65;93.75;101817.78;5103316;28;20161;-82
2021/01/03 09:57:40;;;;;;;93.23;31.13;;;;;;;2.59;93.76;101817.31;5100167;28;20024;-82
2021/01/03 10:00:17;;;;;;;88.50;29.90;;;;;;;2.65;93.69;101827.94;5101932;28;20031;-81
2021/01/03 10:02:43;;;;;;;88.83;31.97;;;;;;;2.63;93.56;101822.75;5099639;28;20493;-80
2021/01/03 10:05:28;;;;;;;80.20;30.15;;;;;;;2.61;93.83;101816.69;5099283;28;20030;-82
2021/01/03 10:08:05;;;;;;;82.27;30.67;;;;;;;2.67;93.43;101828.91;5098065;28;20057;-84
2021/01/03 10:10:49;;;;;;;76.97;31.10;;;;;;;2.71;93.06;101815.66;5098318;28;20028;-81
2021/01/03 10:13:16;;;;;;;77.77;31.23;;;;;;;2.70;92.99;101826.59;5101392;28;20096;-80
2021/01/03 10:15:43;;;;;;;81.20;30.37;;;;;;;2.72;93.58;101831.00;5097264;28;20539;-78
2021/01/03 10:18:11;;;;;;;80.50;31.23;;;;;;;2.77;92.42;101826.25;5100198;28;20077;-81
2021/01/03 10:20:43;;;;;;;82.60;31.13;;;;;;;2.83;92.48;101831.75;5100473;28;20503;-82
2021/01/03 10:23:13;;;;;;;78.90;28.90;;;;;;;2.86;92.02;101826.88;5099963;28;20054;-79
2021/01/03 10:25:39;;;;;;;74.60;28.87;;;;;;;2.94;91.17;101825.78;5113278;22;20046;-77
2021/01/03 10:28:15;;;;;;;74.05;30.42;;;;;;;2.96;91.26;101818.28;5081598;28;20020;-78
2021/01/03 10:30:41;;;;;;;76.32;30.83;;;;;;;3.02;91.06;101824.66;5081716;28;20028;-78
2021/01/03 10:33:07;;;;;;;68.50;27.83;;;;;;;3.04;90.09;101825.66;5085818;28;20052;-79
2021/01/03 10:35:33;;;;;;;;;;;;;;;3.09;90.82;101823.41;5084050;28;20024;-78
2021/01/03 10:37:59;;;;;;;69.57;28.57;;;;;;;3.11;90.33;101815.13;5094941;28;19911;-77
2021/01/03 10:40:25;;;;;;;66.82;27.40;;;;;;;3.20;90.61;101819.94;5096113;28;20020;-79
2021/01/03 10:42:50;;;;;;;64.03;26.90;;;;;;;3.20;89.74;101819.06;5093994;28;20085;-79
2021/01/03 10:45:19;;;;;;;65.97;27.08;;;;;;;3.31;90.26;101825.78;5094936;28;20031;-79
2021/01/03 10:47:45;;;;;;;63.43;26.17;;;;;;;3.35;89.55;101821.00;5088713;28;20052;-78
2021/01/03 10:50:11;;;;;;;53.50;24.70;;;;;;;3.41;88.93;101816.34;5092559;28;20024;-79
2021/01/03 10:52:38;;;;;;;58.93;24.73;;;;;;;3.45;88.92;101817.44;5093643;28;20493;-80
2021/01/03 10:55:06;;;;;;;50.83;21.97;;;;;;;3.44;86.55;101813.13;5092235;28;20047;-79
2021/01/03 10:57:31;;;;;;;56.17;24.93;;;;;;;3.44;87.81;101820.75;5091180;28;20478;-80
2021/01/03 10:59:56;;;;;;;50.78;22.23;;;;;;;3.41;86.64;101812.94;5093786;28;20032;-80
2021/01/03 11:02:21;;;;;;;53.10;22.63;;;;;;;3.37;86.76;101810.97;5092826;28;20499;-80
2021/01/03 11:04:47;;;;;;;45.80;21.53;;;;;;;3.31;86.42;101813.09;5094120;28;20036;-80
2021/01/03 11:07:13;;;;;;;45.15;20.92;;;;;;;3.24;86.70;101811.75;5091927;28;20539;-77
2021/01/03 11:09:38;;;;;;;48.28;21.00;;;;;;;3.24;86.48;101811.75;5094257;28;20024;-79
2021/01/03 11:12:10;;;;;;;43.17;19.43;;;;;;;3.30;85.32;101808.78;5091800;28;20078;-79
2021/01/03 11:14:36;;;;;;;43.30;20.07;;;;;;;3.28;84.87;101800.19;5092889;28;20847;-79
2021/01/03 11:17:11;;;;;;;36.33;17.52;;;;;;;3.31;84.17;101808.00;5093401;28;20111;-79
2021/01/03 11:19:37;;;;;;;38.80;18.53;;;;;;;3.33;83.85;101801.38;5094291;28;20363;-79
2021/01/03 11:22:04;;;;;;;35.85;16.85;;;;;;;3.26;84.04;101795.00;5097061;28;20020;-79
2021/01/03 11:24:29;;;;;;;34.47;16.57;;;;;;;3.31;82.96;101797.84;5091147;28;20020;-78
2021/01/03 11:26:55;;;;;;;36.30;16.17;;;;;;;3.31;83.76;101797.84;5094522;28;20027;-78
2021/01/03 11:29:24;;;;;;;33.10;15.27;;;;;;;3.30;83.10;101801.16;5094938;28;20026;-77
2021/01/03 11:31:52;;;;;;;31.73;15.20;;;;;;;3.34;83.43;101798.06;5093609;28;20053;-77
2021/01/03 11:34:23;;;;;;;29.87;14.90;;;;;;;3.27;82.87;101800.97;5094144;28;20027;-78
2021/01/03 11:36:52;;;;;;;29.83;14.27;;;;;;;3.25;83.16;101793.25;5092252;28;20520;-79